createdAt,value
2022-08-03T00:04:01.838Z,2.80
2022-08-03T00:09:03.464Z,2.97
2022-08-03T00:14:05.756Z,3.13
2022-08-03T00:19:07.102Z,2.67
2022-08-03T00:24:08.407Z,2.80
2022-08-03T00:29:12.770Z,2.90
2022-08-03T00:34:14.267Z,3.00
2022-08-03T00:39:15.543Z,2.80
2022-08-03T00:44:16.826Z,3.08
2022-08-03T00:49:18.146Z,3.65
2022-08-03T00:54:19.933Z,3.00
2022-08-03T00:59:22.681Z,2.88
2022-08-03T01:04:24.007Z,3.30
2022-08-03T01:09:34.506Z,3.30
2022-08-03T01:14:42.145Z,3.03
2022-08-03T01:19:56.205Z,2.80
2022-08-03T01:25:00.319Z,3.05
2022-08-03T01:30:06.222Z,2.70
2022-08-03T01:35:12.596Z,3.10
2022-08-03T01:40:14.397Z,2.90
2022-08-03T01:45:17.959Z,3.30
2022-08-03T01:50:21.130Z,3.38
2022-08-03T01:55:23.313Z,3.30
2022-08-03T02:00:25.825Z,2.80
2022-08-03T02:05:28.014Z,3.10
2022-08-03T02:10:35.150Z,3.08
2022-08-03T02:15:37.949Z,2.85
2022-08-03T02:20:41.511Z,2.90
2022-08-03T02:25:44.480Z,3.33
2022-08-03T02:30:46.877Z,3.10
2022-08-03T02:35:54.138Z,2.93
2022-08-03T02:40:56.470Z,3.03
2022-08-03T02:45:57.860Z,3.30
2022-08-03T02:50:59.924Z,3.43
2022-08-03T02:56:02.730Z,3.00
2022-08-03T03:01:04.592Z,3.55
2022-08-03T03:06:06.914Z,3.15
2022-08-03T03:11:08.646Z,3.23
2022-08-03T03:16:11.856Z,3.33
2022-08-03T03:21:14.270Z,3.28
2022-08-03T03:26:15.786Z,3.20
2022-08-03T03:31:17.110Z,3.17
2022-08-03T03:36:18.478Z,3.20
2022-08-03T03:41:19.868Z,3.03
2022-08-03T03:46:22.279Z,3.13
2022-08-03T03:51:23.637Z,3.50
2022-08-03T03:56:25.331Z,3.65
2022-08-03T04:01:27.270Z,3.57
2022-08-03T04:06:47.327Z,3.08
2022-08-03T04:11:51.174Z,3.22
2022-08-03T04:16:57.748Z,3.60
2022-08-03T04:22:00.726Z,3.38
2022-08-03T04:27:04.370Z,3.50
2022-08-03T04:32:06.520Z,3.20
2022-08-03T04:37:11.786Z,3.03
2022-08-03T04:42:13.569Z,3.20
2022-08-03T04:47:15.390Z,3.80
2022-08-03T04:52:17.183Z,3.50
2022-08-03T04:57:23.143Z,3.75
2022-08-03T05:02:27.525Z,3.30
2022-08-03T05:07:35.937Z,3.70
2022-08-03T05:12:38.202Z,3.58
2022-08-03T05:17:39.583Z,3.63
2022-08-03T05:22:40.890Z,3.30
2022-08-03T05:27:42.284Z,3.70
2022-08-03T05:32:43.560Z,3.28
2022-08-03T05:37:54.748Z,3.33
2022-08-03T05:42:56.595Z,3.37
2022-08-03T05:47:59.297Z,3.10
2022-08-03T05:53:00.580Z,3.40
2022-08-03T05:58:03.761Z,3.30
2022-08-03T06:03:05.301Z,3.55
2022-08-03T06:08:06.598Z,3.38
2022-08-03T06:13:07.869Z,3.10
2022-08-03T06:18:09.144Z,3.10
2022-08-03T06:23:16.125Z,2.90
2022-08-03T06:34:30.417Z,3.00
2022-08-03T06:39:02.433Z,2.75
2022-08-03T06:44:04.482Z,3.20
2022-08-03T06:49:06.760Z,3.10
2022-08-03T06:54:08.054Z,3.10
2022-08-03T06:59:09.335Z,3.10
2022-08-03T07:04:30.580Z,3.53
2022-08-03T07:09:32.006Z,3.40
2022-08-03T07:14:33.369Z,3.10
2022-08-03T07:19:34.666Z,3.55
2022-08-03T07:24:36.800Z,3.77
2022-08-03T07:29:38.085Z,3.60
2022-08-03T07:34:39.550Z,3.45
2022-08-03T07:39:40.830Z,3.73
2022-08-03T07:44:42.115Z,3.40
2022-08-03T07:49:43.607Z,3.83
2022-08-03T07:54:44.910Z,3.70
2022-08-03T07:59:56.824Z,4.30
2022-08-03T08:05:05.789Z,3.97
2022-08-03T08:10:14.086Z,3.97
2022-08-03T08:15:15.395Z,4.20
2022-08-03T08:20:28.436Z,4.07
2022-08-03T08:25:32.306Z,4.25
2022-08-03T08:30:34.069Z,4.40
2022-08-03T08:35:36.762Z,4.05
2022-08-03T08:40:38.069Z,4.10
2022-08-03T08:45:40.657Z,4.00
2022-08-03T08:50:42.272Z,4.03
2022-08-03T08:55:58.748Z,3.88
2022-08-03T09:01:01.596Z,3.97
2022-08-03T09:06:03.182Z,4.20
2022-08-03T09:11:04.550Z,3.58
2022-08-03T09:16:09.318Z,3.35
2022-08-03T09:21:30.108Z,3.50
2022-08-03T09:26:34.478Z,2.83
2022-08-03T09:31:37.133Z,2.90
2022-08-03T09:36:48.675Z,3.70
2022-08-03T09:42:05.449Z,3.03
2022-08-03T09:47:06.814Z,2.90
2022-08-03T09:52:32.221Z,3.30
2022-08-03T09:57:35.530Z,3.17
2022-08-03T10:02:37.747Z,3.00
2022-08-03T10:07:48.873Z,3.10
2022-08-03T10:12:50.513Z,3.03
2022-08-03T10:17:51.822Z,3.03
2022-08-03T10:22:53.448Z,2.88
2022-08-03T10:27:56.529Z,3.00
2022-08-03T10:33:02.083Z,3.60
2022-08-03T10:38:06.365Z,2.70
2022-08-03T10:43:10.021Z,2.97
2022-08-03T10:48:11.759Z,2.60
2022-08-03T10:53:16.619Z,2.80
2022-08-03T10:58:36.665Z,3.40
2022-08-03T11:03:53.299Z,2.50
2022-08-03T11:09:09.852Z,2.60
2022-08-03T11:14:12.394Z,2.85
2022-08-03T11:19:15.281Z,2.70
2022-08-03T11:24:35.131Z,2.80
2022-08-03T11:29:36.458Z,3.08
2022-08-03T11:34:57.701Z,2.80
2022-08-03T11:39:59.032Z,2.80
2022-08-03T11:45:00.644Z,2.60
2022-08-03T11:50:02.198Z,3.17
2022-08-03T11:55:13.751Z,2.70
2022-08-03T12:00:21.954Z,2.20
2022-08-03T12:05:33.190Z,2.42
2022-08-03T12:10:34.884Z,2.43
2022-08-03T12:15:36.711Z,2.40
2022-08-03T12:20:38.100Z,2.45
2022-08-03T12:25:40.361Z,2.50
2022-08-03T12:30:41.865Z,2.80
2022-08-03T12:35:53.295Z,2.67
2022-08-03T12:40:59.978Z,2.63
2022-08-03T12:46:11.532Z,2.70
2022-08-03T12:51:12.898Z,2.70
2022-08-03T12:56:14.222Z,2.67
2022-08-03T13:01:15.915Z,2.60
2022-08-03T13:06:18.381Z,2.83
2022-08-03T13:11:20.278Z,2.60
2022-08-03T13:16:22.420Z,3.33
2022-08-03T13:21:23.881Z,2.87
2022-08-03T13:26:25.174Z,2.80
2022-08-03T13:31:26.507Z,2.47
2022-08-03T13:36:27.798Z,2.40
2022-08-03T13:41:31.500Z,2.30
2022-08-03T13:46:34.445Z,2.55
2022-08-03T13:51:35.864Z,2.50
2022-08-03T13:56:37.168Z,2.83
2022-08-03T14:01:54.047Z,2.65
2022-08-03T14:06:56.543Z,2.72
2022-08-03T14:12:04.014Z,2.57
2022-08-03T14:17:09.880Z,2.72
2022-08-03T14:22:13.357Z,2.60
2022-08-03T14:27:14.673Z,2.60
2022-08-03T14:32:16.060Z,2.47
2022-08-03T14:37:18.416Z,2.50
2022-08-03T14:42:20.465Z,2.70
2022-08-03T14:47:22.175Z,2.60
2022-08-03T14:52:23.669Z,2.70
2022-08-03T14:57:25.234Z,2.67
2022-08-03T15:02:27.802Z,2.50
2022-08-03T15:07:29.130Z,2.90
2022-08-03T15:12:30.425Z,2.60
2022-08-03T15:17:31.731Z,2.90
2022-08-03T15:22:35.304Z,2.70
2022-08-03T15:27:36.682Z,2.42
2022-08-03T15:32:57.990Z,2.80
2022-08-03T15:37:59.412Z,2.60
2022-08-03T15:43:01.557Z,2.55
2022-08-03T15:48:02.914Z,2.50
2022-08-03T15:53:04.604Z,2.63
2022-08-03T15:59:03.617Z,2.65
2022-08-03T16:03:28.371Z,2.65
2022-08-03T16:08:29.721Z,2.67
2022-08-03T16:14:12.487Z,2.55
2022-08-03T16:18:52.591Z,2.70
2022-08-03T16:23:53.889Z,2.40
2022-08-03T16:28:55.454Z,2.70
2022-08-03T16:33:57.043Z,2.78
2022-08-03T16:39:00.141Z,2.65
2022-08-03T16:44:02.777Z,2.40
2022-08-03T16:49:06.734Z,2.75
2022-08-03T16:54:12.403Z,2.58
2022-08-03T16:59:15.321Z,2.83
2022-08-03T17:04:16.648Z,2.60
2022-08-03T17:09:20.770Z,3.40
2022-08-03T17:14:29.337Z,2.30
2022-08-03T17:19:32.383Z,2.63
2022-08-03T17:24:35.198Z,2.20
2022-08-03T17:29:44.897Z,2.75
2022-08-03T17:34:48.751Z,2.40
2022-08-03T17:39:59.615Z,2.70
2022-08-03T17:45:03.844Z,2.63
2022-08-03T17:50:23.351Z,2.30
2022-08-03T17:55:57.602Z,2.25
2022-08-03T18:01:58.171Z,2.20
2022-08-03T18:06:30.541Z,2.10
2022-08-03T18:11:37.056Z,2.28
2022-08-03T18:16:52.215Z,2.63
2022-08-03T18:22:03.342Z,2.43
2022-08-03T18:27:06.640Z,2.40
2022-08-03T18:32:13.472Z,2.30
2022-08-03T18:37:23.092Z,2.33
2022-08-03T18:42:26.965Z,2.63
2022-08-03T18:47:50.666Z,2.70
2022-08-03T18:53:22.597Z,2.33
2022-08-03T18:58:46.676Z,2.77
2022-08-03T19:03:55.562Z,2.30
2022-08-03T19:09:03.622Z,2.50
2022-08-03T19:14:05.463Z,2.60
2022-08-03T19:19:14.442Z,2.47
2022-08-03T19:24:16.832Z,2.50
2022-08-03T19:29:22.287Z,2.20
2022-08-03T19:34:24.151Z,2.40
2022-08-03T19:39:25.670Z,2.30
2022-08-03T19:44:30.148Z,2.55
2022-08-03T19:50:04.914Z,2.60
2022-08-03T19:54:56.854Z,2.03
2022-08-03T19:59:59.401Z,2.70
2022-08-03T20:05:05.349Z,2.47
2022-08-03T20:10:17.292Z,2.30
2022-08-03T20:15:30.930Z,2.15
2022-08-03T20:20:33.939Z,2.00
2022-08-03T20:25:55.784Z,2.10
2022-08-03T20:31:00.290Z,2.10
2022-08-03T20:36:03.599Z,2.25
2022-08-03T20:41:04.994Z,2.40
2022-08-03T20:46:31.328Z,2.40
2022-08-03T20:51:50.471Z,2.10
2022-08-03T20:56:50.275Z,2.30
2022-08-03T21:01:51.558Z,2.30
2022-08-03T21:07:02.609Z,2.47
2022-08-03T21:12:22.090Z,2.15
2022-08-03T21:17:40.600Z,2.33
2022-08-03T21:22:43.809Z,2.22
2022-08-03T21:27:45.540Z,2.20
2022-08-03T21:32:47.213Z,2.50
2022-08-03T21:38:08.627Z,2.20
2022-08-03T21:43:09.987Z,2.38
2022-08-03T21:48:12.922Z,2.03
2022-08-03T21:53:14.549Z,2.10
2022-08-03T21:58:17.281Z,2.03
2022-08-03T22:03:18.951Z,2.50
2022-08-03T22:08:20.242Z,2.27
2022-08-03T22:13:43.731Z,2.60
2022-08-03T22:18:44.400Z,2.15
2022-08-03T22:23:47.508Z,2.30
2022-08-03T22:28:49.397Z,2.40
2022-08-03T22:33:52.498Z,2.50
2022-08-03T22:38:54.003Z,2.53
2022-08-03T22:43:57.948Z,2.20
2022-08-03T22:49:05.899Z,2.55
2022-08-03T22:54:07.536Z,2.70
2022-08-03T22:59:39.084Z,2.53
2022-08-03T23:04:31.358Z,2.50
2022-08-03T23:09:32.777Z,2.35
2022-08-03T23:14:38.402Z,2.40
2022-08-03T23:19:41.675Z,2.65
2022-08-03T23:24:46.237Z,2.35
2022-08-03T23:29:48.011Z,2.50
2022-08-03T23:35:09.408Z,2.70
2022-08-03T23:40:12.812Z,2.95
2022-08-03T23:45:15.942Z,2.42
2022-08-03T23:50:17.608Z,2.50
2022-08-03T23:55:48.097Z,2.53
